sensor_id;sensor_type;location;lat;lon;timestamp;P1;durP1;ratioP1;P2;durP2;ratioP2
44446;SDS011;30152;52.066;5.358;2023-01-28T08:47:19;19.35;;;10.35;;
44446;SDS011;30152;52.066;5.358;2023-01-28T08:49:45;19.55;;;10.52;;
44446;SDS011;30152;52.066;5.358;2023-01-28T08:52:11;17.33;;;9.55;;
44446;SDS011;30152;52.066;5.358;2023-01-28T08:54:37;20.98;;;10.25;;
44446;SDS011;30152;52.066;5.358;2023-01-28T08:57:03;21.00;;;10.05;;
44446;SDS011;30152;52.066;5.358;2023-01-28T08:59:29;18.67;;;9.15;;
44446;SDS011;30152;52.066;5.358;2023-01-28T09:01:55;19.20;;;9.90;;
44446;SDS011;30152;52.066;5.358;2023-01-28T09:04:21;18.23;;;9.40;;
44446;SDS011;30152;52.066;5.358;2023-01-28T09:06:47;16.65;;;9.15;;
44446;SDS011;30152;52.066;5.358;2023-01-28T09:09:13;17.17;;;8.73;;
44446;SDS011;30152;52.066;5.358;2023-01-28T09:11:39;16.15;;;8.77;;
44446;SDS011;30152;52.066;5.358;2023-01-28T09:14:05;18.80;;;9.32;;
44446;SDS011;30152;52.066;5.358;2023-01-28T09:16:31;17.50;;;8.80;;
44446;SDS011;30152;52.066;5.358;2023-01-28T09:18:57;15.95;;;8.38;;
44446;SDS011;30152;52.066;5.358;2023-01-28T09:21:23;16.55;;;8.90;;
44446;SDS011;30152;52.066;5.358;2023-01-28T09:23:49;19.08;;;9.85;;
44446;SDS011;30152;52.066;5.358;2023-01-28T09:26:15;18.10;;;9.05;;
44446;SDS011;30152;52.066;5.358;2023-01-28T09:28:41;16.42;;;9.40;;
44446;SDS011;30152;52.066;5.358;2023-01-28T09:31:08;17.83;;;9.07;;
44446;SDS011;30152;52.066;5.358;2023-01-28T09:33:35;16.75;;;9.38;;
44446;SDS011;30152;52.066;5.358;2023-01-28T09:36:02;17.98;;;8.80;;
44446;SDS011;30152;52.066;5.358;2023-01-28T09:38:29;17.75;;;8.30;;
44446;SDS011;30152;52.066;5.358;2023-01-28T09:40:55;16.55;;;9.07;;
44446;SDS011;30152;52.066;5.358;2023-01-28T09:45:50;16.23;;;8.32;;
44446;SDS011;30152;52.066;5.358;2023-01-28T09:48:21;13.90;;;7.75;;
44446;SDS011;30152;52.066;5.358;2023-01-28T09:50:49;14.77;;;8.32;;
44446;SDS011;30152;52.066;5.358;2023-01-28T09:53:22;14.23;;;7.60;;
44446;SDS011;30152;52.066;5.358;2023-01-28T09:55:55;16.55;;;8.30;;
44446;SDS011;30152;52.066;5.358;2023-01-28T09:58:22;14.30;;;7.63;;
44446;SDS011;30152;52.066;5.358;2023-01-28T10:10:46;15.30;;;6.82;;
44446;SDS011;30152;52.066;5.358;2023-01-28T10:18:15;13.25;;;7.18;;
44446;SDS011;30152;52.066;5.358;2023-01-28T10:20:56;11.55;;;5.93;;
44446;SDS011;30152;52.066;5.358;2023-01-28T10:23:40;12.25;;;5.88;;
44446;SDS011;30152;52.066;5.358;2023-01-28T10:26:18;10.25;;;5.97;;
44446;SDS011;30152;52.066;5.358;2023-01-28T10:28:52;11.52;;;5.85;;
44446;SDS011;30152;52.066;5.358;2023-01-28T10:31:21;11.60;;;5.63;;
44446;SDS011;30152;52.066;5.358;2023-01-28T10:33:47;11.13;;;6.32;;
44446;SDS011;30152;52.066;5.358;2023-01-28T10:36:13;11.27;;;5.63;;
44446;SDS011;30152;52.066;5.358;2023-01-28T10:38:39;14.32;;;6.45;;
44446;SDS011;30152;52.066;5.358;2023-01-28T10:41:05;10.77;;;5.63;;
44446;SDS011;30152;52.066;5.358;2023-01-28T10:43:36;12.02;;;6.20;;
44446;SDS011;30152;52.066;5.358;2023-01-28T10:46:06;9.90;;;4.88;;
44446;SDS011;30152;52.066;5.358;2023-01-28T10:48:37;11.10;;;5.57;;
44446;SDS011;30152;52.066;5.358;2023-01-28T10:51:05;9.30;;;5.28;;
44446;SDS011;30152;52.066;5.358;2023-01-28T10:56:00;11.00;;;5.50;;
44446;SDS011;30152;52.066;5.358;2023-01-28T10:58:28;10.43;;;4.65;;
44446;SDS011;30152;52.066;5.358;2023-01-28T11:00:55;8.93;;;4.70;;
44446;SDS011;30152;52.066;5.358;2023-01-28T11:03:22;11.75;;;5.35;;
44446;SDS011;30152;52.066;5.358;2023-01-28T11:05:53;9.30;;;4.45;;
44446;SDS011;30152;52.066;5.358;2023-01-28T11:08:20;9.60;;;5.55;;
44446;SDS011;30152;52.066;5.358;2023-01-28T11:10:46;10.18;;;5.32;;
44446;SDS011;30152;52.066;5.358;2023-01-28T11:13:22;13.85;;;5.68;;
44446;SDS011;30152;52.066;5.358;2023-01-28T11:15:59;11.50;;;6.20;;
44446;SDS011;30152;52.066;5.358;2023-01-28T11:18:27;13.43;;;7.07;;
44446;SDS011;30152;52.066;5.358;2023-01-28T11:20:56;12.70;;;6.55;;
44446;SDS011;30152;52.066;5.358;2023-01-28T11:23:24;10.65;;;6.00;;
44446;SDS011;30152;52.066;5.358;2023-01-28T11:26:01;11.45;;;5.85;;
44446;SDS011;30152;52.066;5.358;2023-01-28T11:28:29;10.15;;;5.65;;
44446;SDS011;30152;52.066;5.358;2023-01-28T11:30:55;8.82;;;4.85;;
44446;SDS011;30152;52.066;5.358;2023-01-28T11:33:30;11.02;;;5.35;;
44446;SDS011;30152;52.066;5.358;2023-01-28T11:36:03;9.05;;;4.30;;
44446;SDS011;30152;52.066;5.358;2023-01-28T11:38:29;6.65;;;3.45;;
44446;SDS011;30152;52.066;5.358;2023-01-28T11:40:56;8.75;;;4.15;;
44446;SDS011;30152;52.066;5.358;2023-01-28T11:43:23;7.50;;;4.18;;
44446;SDS011;30152;52.066;5.358;2023-01-28T11:51:52;7.70;;;3.83;;
44446;SDS011;30152;52.066;5.358;2023-01-28T11:54:08;9.88;;;4.20;;
44446;SDS011;30152;52.066;5.358;2023-01-28T12:02:05;9.98;;;4.07;;
44446;SDS011;30152;52.066;5.358;2023-01-28T12:07:13;7.47;;;3.63;;
44446;SDS011;30152;52.066;5.358;2023-01-28T12:09:45;9.80;;;4.00;;
44446;SDS011;30152;52.066;5.358;2023-01-28T12:12:18;8.30;;;4.13;;
44446;SDS011;30152;52.066;5.358;2023-01-28T12:17:28;10.75;;;3.90;;
44446;SDS011;30152;52.066;5.358;2023-01-28T12:19:59;7.45;;;3.92;;
44446;SDS011;30152;52.066;5.358;2023-01-28T12:27:43;8.15;;;3.78;;
44446;SDS011;30152;52.066;5.358;2023-01-28T12:32:45;7.88;;;4.13;;
44446;SDS011;30152;52.066;5.358;2023-01-28T12:35:24;9.27;;;4.57;;
44446;SDS011;30152;52.066;5.358;2023-01-28T12:40:37;7.10;;;3.65;;
44446;SDS011;30152;52.066;5.358;2023-01-28T12:45:59;10.75;;;4.32;;
44446;SDS011;30152;52.066;5.358;2023-01-28T12:48:31;8.15;;;4.57;;
44446;SDS011;30152;52.066;5.358;2023-01-28T12:51:14;8.40;;;4.45;;
44446;SDS011;30152;52.066;5.358;2023-01-28T12:53:49;10.35;;;4.00;;
44446;SDS011;30152;52.066;5.358;2023-01-28T12:56:16;7.20;;;3.63;;
44446;SDS011;30152;52.066;5.358;2023-01-28T12:59:11;12.25;;;5.18;;
44446;SDS011;30152;52.066;5.358;2023-01-28T13:02:23;10.77;;;4.13;;
44446;SDS011;30152;52.066;5.358;2023-01-28T13:07:16;8.02;;;3.80;;
44446;SDS011;30152;52.066;5.358;2023-01-28T13:09:51;9.30;;;4.20;;
44446;SDS011;30152;52.066;5.358;2023-01-28T13:12:18;9.68;;;4.07;;
44446;SDS011;30152;52.066;5.358;2023-01-28T13:14:45;7.57;;;3.42;;
44446;SDS011;30152;52.066;5.358;2023-01-28T13:17:29;7.63;;;3.45;;
44446;SDS011;30152;52.066;5.358;2023-01-28T13:19:55;9.43;;;3.63;;
44446;SDS011;30152;52.066;5.358;2023-01-28T13:22:29;8.05;;;3.97;;
44446;SDS011;30152;52.066;5.358;2023-01-28T13:24:56;8.32;;;3.65;;
44446;SDS011;30152;52.066;5.358;2023-01-28T13:27:25;9.93;;;4.30;;
44446;SDS011;30152;52.066;5.358;2023-01-28T13:30:18;8.25;;;3.78;;
44446;SDS011;30152;52.066;5.358;2023-01-28T13:32:54;8.93;;;3.53;;
44446;SDS011;30152;52.066;5.358;2023-01-28T13:35:31;9.52;;;3.22;;
44446;SDS011;30152;52.066;5.358;2023-01-28T13:38:04;9.38;;;4.25;;
44446;SDS011;30152;52.066;5.358;2023-01-28T13:40:52;9.45;;;3.55;;
44446;SDS011;30152;52.066;5.358;2023-01-28T13:46:03;7.65;;;3.50;;
44446;SDS011;30152;52.066;5.358;2023-01-28T13:48:32;7.68;;;3.95;;
44446;SDS011;30152;52.066;5.358;2023-01-28T13:51:26;7.57;;;3.75;;
44446;SDS011;30152;52.066;5.358;2023-01-28T13:54:04;8.30;;;3.50;;
44446;SDS011;30152;52.066;5.358;2023-01-28T14:02:24;8.27;;;3.30;;
44446;SDS011;30152;52.066;5.358;2023-01-28T14:05:25;7.90;;;3.80;;
44446;SDS011;30152;52.066;5.358;2023-01-28T14:10:48;8.02;;;3.33;;
44446;SDS011;30152;52.066;5.358;2023-01-28T14:13:32;6.88;;;3.13;;
44446;SDS011;30152;52.066;5.358;2023-01-28T14:18:43;10.48;;;4.75;;
44446;SDS011;30152;52.066;5.358;2023-01-28T14:21:20;15.90;;;7.10;;
44446;SDS011;30152;52.066;5.358;2023-01-28T14:23:47;9.93;;;4.20;;
44446;SDS011;30152;52.066;5.358;2023-01-28T14:31:51;6.60;;;2.38;;
44446;SDS011;30152;52.066;5.358;2023-01-28T14:36:48;6.10;;;2.17;;
44446;SDS011;30152;52.066;5.358;2023-01-28T14:39:15;6.63;;;1.73;;
44446;SDS011;30152;52.066;5.358;2023-01-28T14:41:48;6.45;;;2.30;;
44446;SDS011;30152;52.066;5.358;2023-01-28T14:44:20;8.73;;;2.50;;
44446;SDS011;30152;52.066;5.358;2023-01-28T14:46:56;6.95;;;2.45;;
44446;SDS011;30152;52.066;5.358;2023-01-28T14:49:35;10.27;;;1.95;;
44446;SDS011;30152;52.066;5.358;2023-01-28T14:54:46;9.88;;;4.43;;
44446;SDS011;30152;52.066;5.358;2023-01-28T14:57:20;10.02;;;4.25;;
44446;SDS011;30152;52.066;5.358;2023-01-28T14:59:53;11.75;;;5.10;;
44446;SDS011;30152;52.066;5.358;2023-01-28T15:02:23;8.00;;;4.50;;
44446;SDS011;30152;52.066;5.358;2023-01-28T15:04:49;9.93;;;4.78;;
44446;SDS011;30152;52.066;5.358;2023-01-28T15:07:17;10.88;;;4.65;;
44446;SDS011;30152;52.066;5.358;2023-01-28T15:10:00;10.30;;;4.38;;
44446;SDS011;30152;52.066;5.358;2023-01-28T15:12:28;9.13;;;4.88;;
44446;SDS011;30152;52.066;5.358;2023-01-28T15:18:20;12.63;;;5.35;;
44446;SDS011;30152;52.066;5.358;2023-01-28T15:20:59;13.48;;;4.40;;
44446;SDS011;30152;52.066;5.358;2023-01-28T15:23:41;9.93;;;4.05;;
44446;SDS011;30152;52.066;5.358;2023-01-28T15:26:20;11.18;;;4.45;;
44446;SDS011;30152;52.066;5.358;2023-01-28T15:28:48;9.90;;;4.85;;
44446;SDS011;30152;52.066;5.358;2023-01-28T15:31:18;8.43;;;4.20;;
44446;SDS011;30152;52.066;5.358;2023-01-28T15:36:40;10.75;;;5.22;;
44446;SDS011;30152;52.066;5.358;2023-01-28T15:39:14;14.65;;;5.35;;
44446;SDS011;30152;52.066;5.358;2023-01-28T15:41:46;10.32;;;5.03;;
44446;SDS011;30152;52.066;5.358;2023-01-28T15:44:23;13.77;;;5.70;;
44446;SDS011;30152;52.066;5.358;2023-01-28T15:46:59;11.13;;;5.22;;
44446;SDS011;30152;52.066;5.358;2023-01-28T15:49:30;15.00;;;5.90;;
44446;SDS011;30152;52.066;5.358;2023-01-28T15:51:58;12.48;;;5.38;;
44446;SDS011;30152;52.066;5.358;2023-01-28T15:54:25;14.05;;;4.80;;
44446;SDS011;30152;52.066;5.358;2023-01-28T15:56:51;11.35;;;5.28;;
44446;SDS011;30152;52.066;5.358;2023-01-28T15:59:25;11.63;;;5.05;;
44446;SDS011;30152;52.066;5.358;2023-01-28T16:04:55;10.65;;;4.68;;
44446;SDS011;30152;52.066;5.358;2023-01-28T16:07:23;11.70;;;5.22;;
44446;SDS011;30152;52.066;5.358;2023-01-28T16:09:53;10.60;;;5.20;;
44446;SDS011;30152;52.066;5.358;2023-01-28T16:12:20;12.55;;;5.65;;
44446;SDS011;30152;52.066;5.358;2023-01-28T16:17:22;13.77;;;5.95;;
44446;SDS011;30152;52.066;5.358;2023-01-28T16:19:59;12.90;;;6.00;;
44446;SDS011;30152;52.066;5.358;2023-01-28T16:22:36;10.57;;;5.38;;
44446;SDS011;30152;52.066;5.358;2023-01-28T16:25:22;14.13;;;5.78;;
44446;SDS011;30152;52.066;5.358;2023-01-28T16:27:48;11.15;;;5.75;;
44446;SDS011;30152;52.066;5.358;2023-01-28T16:30:15;11.50;;;5.50;;
44446;SDS011;30152;52.066;5.358;2023-01-28T16:32:41;12.60;;;5.90;;
44446;SDS011;30152;52.066;5.358;2023-01-28T16:35:17;12.88;;;5.68;;
44446;SDS011;30152;52.066;5.358;2023-01-28T16:37:44;16.63;;;5.78;;
44446;SDS011;30152;52.066;5.358;2023-01-28T16:40:10;13.10;;;5.75;;
44446;SDS011;30152;52.066;5.358;2023-01-28T16:42:36;13.07;;;6.35;;
44446;SDS011;30152;52.066;5.358;2023-01-28T16:45:03;13.85;;;6.10;;
44446;SDS011;30152;52.066;5.358;2023-01-28T16:47:29;11.55;;;5.78;;
44446;SDS011;30152;52.066;5.358;2023-01-28T16:49:55;14.60;;;5.45;;
44446;SDS011;30152;52.066;5.358;2023-01-28T16:52:20;16.55;;;5.47;;
44446;SDS011;30152;52.066;5.358;2023-01-28T16:54:46;15.00;;;6.10;;
44446;SDS011;30152;52.066;5.358;2023-01-28T16:57:13;10.88;;;5.82;;
44446;SDS011;30152;52.066;5.358;2023-01-28T16:59:40;14.57;;;6.80;;
44446;SDS011;30152;52.066;5.358;2023-01-28T17:02:08;15.25;;;7.03;;
44446;SDS011;30152;52.066;5.358;2023-01-28T17:04:35;15.20;;;7.03;;
44446;SDS011;30152;52.066;5.358;2023-01-28T17:07:01;10.48;;;5.78;;
44446;SDS011;30152;52.066;5.358;2023-01-28T17:09:27;15.70;;;5.97;;
44446;SDS011;30152;52.066;5.358;2023-01-28T17:11:54;15.40;;;6.32;;
44446;SDS011;30152;52.066;5.358;2023-01-28T17:14:20;12.10;;;6.55;;
44446;SDS011;30152;52.066;5.358;2023-01-28T17:16:46;11.90;;;5.57;;
44446;SDS011;30152;52.066;5.358;2023-01-28T17:19:12;12.23;;;5.72;;
44446;SDS011;30152;52.066;5.358;2023-01-28T17:21:39;13.15;;;5.97;;
44446;SDS011;30152;52.066;5.358;2023-01-28T17:24:05;10.75;;;5.65;;
44446;SDS011;30152;52.066;5.358;2023-01-28T17:26:31;17.55;;;6.55;;
44446;SDS011;30152;52.066;5.358;2023-01-28T17:28:59;13.75;;;6.63;;
44446;SDS011;30152;52.066;5.358;2023-01-28T17:31:25;14.80;;;6.60;;
44446;SDS011;30152;52.066;5.358;2023-01-28T17:33:52;16.90;;;7.35;;
44446;SDS011;30152;52.066;5.358;2023-01-28T17:36:18;16.10;;;7.93;;
44446;SDS011;30152;52.066;5.358;2023-01-28T17:38:44;16.33;;;7.00;;
44446;SDS011;30152;52.066;5.358;2023-01-28T17:41:10;15.30;;;6.72;;
44446;SDS011;30152;52.066;5.358;2023-01-28T17:43:37;15.57;;;7.40;;
44446;SDS011;30152;52.066;5.358;2023-01-28T17:46:08;13.93;;;6.40;;
44446;SDS011;30152;52.066;5.358;2023-01-28T17:48:35;15.75;;;7.07;;
44446;SDS011;30152;52.066;5.358;2023-01-28T17:51:01;18.45;;;7.13;;
44446;SDS011;30152;52.066;5.358;2023-01-28T17:53:27;15.32;;;7.10;;
44446;SDS011;30152;52.066;5.358;2023-01-28T17:55:53;18.90;;;8.20;;
44446;SDS011;30152;52.066;5.358;2023-01-28T17:58:19;16.30;;;8.05;;
44446;SDS011;30152;52.066;5.358;2023-01-28T18:00:44;14.70;;;7.63;;
44446;SDS011;30152;52.066;5.358;2023-01-28T18:03:11;21.83;;;8.50;;
44446;SDS011;30152;52.066;5.358;2023-01-28T18:05:37;16.33;;;7.55;;
44446;SDS011;30152;52.066;5.358;2023-01-28T18:08:02;17.35;;;8.30;;
44446;SDS011;30152;52.066;5.358;2023-01-28T18:10:28;17.90;;;8.75;;
44446;SDS011;30152;52.066;5.358;2023-01-28T18:12:54;16.80;;;8.50;;
44446;SDS011;30152;52.066;5.358;2023-01-28T18:15:20;21.42;;;8.70;;
44446;SDS011;30152;52.066;5.358;2023-01-28T18:17:48;19.92;;;8.48;;
44446;SDS011;30152;52.066;5.358;2023-01-28T18:20:14;14.65;;;7.72;;
44446;SDS011;30152;52.066;5.358;2023-01-28T18:22:40;18.30;;;8.77;;
44446;SDS011;30152;52.066;5.358;2023-01-28T18:25:06;23.05;;;8.82;;
44446;SDS011;30152;52.066;5.358;2023-01-28T18:27:32;19.17;;;9.15;;
44446;SDS011;30152;52.066;5.358;2023-01-28T18:29:58;16.25;;;8.23;;
44446;SDS011;30152;52.066;5.358;2023-01-28T18:32:24;19.73;;;9.98;;
44446;SDS011;30152;52.066;5.358;2023-01-28T18:34:50;18.27;;;8.43;;
44446;SDS011;30152;52.066;5.358;2023-01-28T18:37:16;19.42;;;8.63;;
44446;SDS011;30152;52.066;5.358;2023-01-28T18:39:42;17.42;;;8.25;;
44446;SDS011;30152;52.066;5.358;2023-01-28T18:42:07;18.95;;;8.85;;
44446;SDS011;30152;52.066;5.358;2023-01-28T18:44:33;17.52;;;8.82;;
44446;SDS011;30152;52.066;5.358;2023-01-28T18:46:59;21.15;;;9.55;;
44446;SDS011;30152;52.066;5.358;2023-01-28T18:49:25;20.67;;;8.48;;
44446;SDS011;30152;52.066;5.358;2023-01-28T18:51:51;20.73;;;9.13;;
44446;SDS011;30152;52.066;5.358;2023-01-28T18:54:16;18.45;;;9.45;;
44446;SDS011;30152;52.066;5.358;2023-01-28T18:56:44;15.60;;;8.55;;
44446;SDS011;30152;52.066;5.358;2023-01-28T18:59:11;21.92;;;9.50;;
44446;SDS011;30152;52.066;5.358;2023-01-28T19:01:37;20.27;;;9.52;;
44446;SDS011;30152;52.066;5.358;2023-01-28T19:04:04;18.98;;;9.65;;
44446;SDS011;30152;52.066;5.358;2023-01-28T19:06:30;19.90;;;9.07;;
44446;SDS011;30152;52.066;5.358;2023-01-28T19:09:00;19.70;;;9.50;;
44446;SDS011;30152;52.066;5.358;2023-01-28T19:11:30;22.48;;;10.07;;
44446;SDS011;30152;52.066;5.358;2023-01-28T19:13:56;25.38;;;10.35;;
44446;SDS011;30152;52.066;5.358;2023-01-28T19:16:22;19.83;;;10.20;;
44446;SDS011;30152;52.066;5.358;2023-01-28T19:18:55;19.20;;;10.05;;
44446;SDS011;30152;52.066;5.358;2023-01-28T19:21:23;18.75;;;9.05;;
44446;SDS011;30152;52.066;5.358;2023-01-28T19:23:59;19.33;;;10.27;;
44446;SDS011;30152;52.066;5.358;2023-01-28T19:26:27;18.88;;;9.93;;
44446;SDS011;30152;52.066;5.358;2023-01-28T19:28:54;23.95;;;11.27;;
44446;SDS011;30152;52.066;5.358;2023-01-28T19:31:21;23.90;;;10.40;;
44446;SDS011;30152;52.066;5.358;2023-01-28T19:33:47;16.80;;;9.50;;
44446;SDS011;30152;52.066;5.358;2023-01-28T19:36:16;19.08;;;9.80;;
44446;SDS011;30152;52.066;5.358;2023-01-28T19:38:42;25.00;;;11.32;;
44446;SDS011;30152;52.066;5.358;2023-01-28T19:41:08;20.30;;;10.55;;
44446;SDS011;30152;52.066;5.358;2023-01-28T19:43:37;21.77;;;10.02;;
44446;SDS011;30152;52.066;5.358;2023-01-28T19:46:03;21.63;;;10.95;;
44446;SDS011;30152;52.066;5.358;2023-01-28T19:48:30;24.92;;;10.73;;
44446;SDS011;30152;52.066;5.358;2023-01-28T19:50:56;21.77;;;10.85;;
44446;SDS011;30152;52.066;5.358;2023-01-28T19:53:22;22.55;;;10.80;;
44446;SDS011;30152;52.066;5.358;2023-01-28T19:55:48;20.40;;;9.65;;
44446;SDS011;30152;52.066;5.358;2023-01-28T19:58:14;25.45;;;11.57;;
44446;SDS011;30152;52.066;5.358;2023-01-28T20:00:40;24.55;;;12.05;;
44446;SDS011;30152;52.066;5.358;2023-01-28T20:03:06;20.75;;;10.90;;
44446;SDS011;30152;52.066;5.358;2023-01-28T20:05:35;26.15;;;11.60;;
44446;SDS011;30152;52.066;5.358;2023-01-28T20:08:01;24.98;;;11.05;;
44446;SDS011;30152;52.066;5.358;2023-01-28T20:10:27;23.70;;;11.52;;
44446;SDS011;30152;52.066;5.358;2023-01-28T20:12:53;22.00;;;10.57;;
44446;SDS011;30152;52.066;5.358;2023-01-28T20:15:19;24.77;;;12.10;;
44446;SDS011;30152;52.066;5.358;2023-01-28T20:17:45;24.98;;;11.38;;
44446;SDS011;30152;52.066;5.358;2023-01-28T20:20:11;23.73;;;11.63;;
44446;SDS011;30152;52.066;5.358;2023-01-28T20:22:36;24.45;;;12.15;;
44446;SDS011;30152;52.066;5.358;2023-01-28T20:25:04;25.42;;;12.02;;
44446;SDS011;30152;52.066;5.358;2023-01-28T20:27:30;25.13;;;11.90;;
44446;SDS011;30152;52.066;5.358;2023-01-28T20:29:56;24.45;;;11.60;;
44446;SDS011;30152;52.066;5.358;2023-01-28T20:32:22;25.40;;;12.25;;
44446;SDS011;30152;52.066;5.358;2023-01-28T20:34:51;26.33;;;12.48;;
44446;SDS011;30152;52.066;5.358;2023-01-28T20:37:17;23.67;;;11.95;;
44446;SDS011;30152;52.066;5.358;2023-01-28T20:39:43;24.52;;;11.98;;
44446;SDS011;30152;52.066;5.358;2023-01-28T20:42:09;24.63;;;11.48;;
44446;SDS011;30152;52.066;5.358;2023-01-28T20:44:37;21.48;;;10.93;;
44446;SDS011;30152;52.066;5.358;2023-01-28T20:47:03;25.17;;;11.73;;
44446;SDS011;30152;52.066;5.358;2023-01-28T20:49:28;27.65;;;12.13;;
44446;SDS011;30152;52.066;5.358;2023-01-28T20:51:54;26.52;;;12.60;;
44446;SDS011;30152;52.066;5.358;2023-01-28T20:54:20;25.63;;;12.57;;
44446;SDS011;30152;52.066;5.358;2023-01-28T20:56:49;26.25;;;12.93;;
44446;SDS011;30152;52.066;5.358;2023-01-28T20:59:15;25.73;;;11.25;;
44446;SDS011;30152;52.066;5.358;2023-01-28T21:01:41;24.60;;;11.50;;
44446;SDS011;30152;52.066;5.358;2023-01-28T21:04:07;24.77;;;11.43;;
44446;SDS011;30152;52.066;5.358;2023-01-28T21:06:34;28.05;;;13.85;;
44446;SDS011;30152;52.066;5.358;2023-01-28T21:09:04;23.75;;;12.00;;
44446;SDS011;30152;52.066;5.358;2023-01-28T21:11:31;31.80;;;13.02;;
44446;SDS011;30152;52.066;5.358;2023-01-28T21:13:57;23.83;;;11.13;;
44446;SDS011;30152;52.066;5.358;2023-01-28T21:16:23;27.42;;;13.18;;
44446;SDS011;30152;52.066;5.358;2023-01-28T21:18:49;27.60;;;13.25;;
44446;SDS011;30152;52.066;5.358;2023-01-28T21:23:47;29.48;;;13.52;;
44446;SDS011;30152;52.066;5.358;2023-01-28T21:26:13;26.90;;;12.75;;
44446;SDS011;30152;52.066;5.358;2023-01-28T21:28:40;25.27;;;12.25;;
44446;SDS011;30152;52.066;5.358;2023-01-28T21:31:06;28.52;;;13.35;;
44446;SDS011;30152;52.066;5.358;2023-01-28T21:33:33;25.52;;;12.38;;
44446;SDS011;30152;52.066;5.358;2023-01-28T21:35:59;24.02;;;11.52;;
44446;SDS011;30152;52.066;5.358;2023-01-28T21:38:25;27.15;;;13.60;;
44446;SDS011;30152;52.066;5.358;2023-01-28T21:40:51;26.15;;;13.18;;
44446;SDS011;30152;52.066;5.358;2023-01-28T21:43:17;27.83;;;13.73;;
44446;SDS011;30152;52.066;5.358;2023-01-28T21:45:42;31.08;;;14.35;;
44446;SDS011;30152;52.066;5.358;2023-01-28T21:48:11;28.45;;;13.60;;
44446;SDS011;30152;52.066;5.358;2023-01-28T21:50:37;28.42;;;13.00;;
44446;SDS011;30152;52.066;5.358;2023-01-28T21:53:23;28.05;;;13.23;;
44446;SDS011;30152;52.066;5.358;2023-01-28T21:55:49;30.40;;;14.63;;
44446;SDS011;30152;52.066;5.358;2023-01-28T21:58:15;28.75;;;13.32;;
44446;SDS011;30152;52.066;5.358;2023-01-28T22:00:59;29.00;;;13.88;;
44446;SDS011;30152;52.066;5.358;2023-01-28T22:03:32;27.77;;;13.45;;
44446;SDS011;30152;52.066;5.358;2023-01-28T22:05:57;29.25;;;13.07;;
44446;SDS011;30152;52.066;5.358;2023-01-28T22:08:23;27.10;;;13.50;;
44446;SDS011;30152;52.066;5.358;2023-01-28T22:10:48;27.67;;;14.40;;
44446;SDS011;30152;52.066;5.358;2023-01-28T22:13:15;30.67;;;14.70;;
44446;SDS011;30152;52.066;5.358;2023-01-28T22:15:41;27.10;;;13.80;;
44446;SDS011;30152;52.066;5.358;2023-01-28T22:18:06;29.88;;;14.25;;
44446;SDS011;30152;52.066;5.358;2023-01-28T22:20:32;29.48;;;13.52;;
44446;SDS011;30152;52.066;5.358;2023-01-28T22:22:57;31.25;;;15.45;;
44446;SDS011;30152;52.066;5.358;2023-01-28T22:25:23;30.90;;;14.73;;
44446;SDS011;30152;52.066;5.358;2023-01-28T22:27:49;30.20;;;14.63;;
44446;SDS011;30152;52.066;5.358;2023-01-28T22:30:15;31.95;;;14.52;;
44446;SDS011;30152;52.066;5.358;2023-01-28T22:32:41;30.55;;;15.05;;
44446;SDS011;30152;52.066;5.358;2023-01-28T22:35:07;31.80;;;15.82;;
44446;SDS011;30152;52.066;5.358;2023-01-28T22:37:33;37.53;;;16.77;;
44446;SDS011;30152;52.066;5.358;2023-01-28T22:39:59;30.92;;;15.77;;
